Time;durP1;ratioP1;P1;durP2;ratioP2;P2;SDS_P1;SDS_P2;PMS_P1;PMS_P2;Temp;Humidity;BMP_temperature;BMP_pressure;BME280_temperature;BME280_humidity;BME280_pressure;Samples;Min_cycle;Max_cycle;Signal;HPM_P1;HPM_P2
2022/09/18 00:00:47;;;;;;;5.65;1.00;;;;;;;13.05;88.90;100308.56;5110049;28;20027;-70
2022/09/18 00:03:14;;;;;;;2.05;0.90;;;;;;;13.08;88.40;100300.44;5091646;28;20489;-71
2022/09/18 00:05:40;;;;;;;1.20;0.80;;;;;;;13.04;88.57;100300.63;5093643;28;20084;-70
2022/09/18 00:08:06;;;;;;;2.13;0.70;;;;;;;13.02;88.67;100299.81;5072918;28;20471;-70
2022/09/18 00:10:32;;;;;;;3.00;0.75;;;;;;;12.98;88.67;100303.50;5099449;28;20413;-71
2022/09/18 00:12:58;;;;;;;1.13;0.90;;;;;;;13.00;88.84;100304.28;5112015;28;20501;-70
2022/09/18 00:15:23;;;;;;;1.80;1.40;;;;;;;12.95;88.34;100304.47;5112472;28;20486;-71
2022/09/18 00:17:49;;;;;;;1.63;0.82;;;;;;;13.02;88.81;100298.00;5112291;28;20028;-71
2022/09/18 00:20:14;;;;;;;2.05;0.60;;;;;;;13.01;89.58;100293.59;5111873;28;20412;-70
2022/09/18 00:22:39;;;;;;;3.03;0.90;;;;;;;12.98;90.07;100288.31;5111071;28;20059;-70
2022/09/18 00:25:06;;;;;;;1.30;0.73;;;;;;;13.05;89.80;100297.88;5111339;28;20072;-70
2022/09/18 00:27:31;;;;;;;3.10;0.90;;;;;;;13.06;90.32;100302.28;5111046;28;20548;-70
2022/09/18 00:29:57;;;;;;;1.52;0.90;;;;;;;13.03;90.44;100296.22;5111279;28;20104;-70
2022/09/18 00:32:22;;;;;;;1.63;1.20;;;;;;;13.03;89.99;100297.06;5110675;28;20032;-70
2022/09/18 00:34:48;;;;;;;6.00;1.00;;;;;;;13.04;90.01;100309.50;5109285;28;20053;-69
2022/09/18 00:37:13;;;;;;;3.60;1.10;;;;;;;12.98;89.47;100293.66;5109838;28;20035;-69
2022/09/18 00:39:39;;;;;;;2.28;0.93;;;;;;;12.99;90.14;100290.09;5109443;28;20051;-69
2022/09/18 00:42:05;;;;;;;4.25;1.10;;;;;;;12.96;90.16;100300.00;5109756;28;20031;-69
2022/09/18 00:44:46;;;;;;;2.25;1.20;;;;;;;13.01;90.20;100290.91;5109289;28;20239;-69
2022/09/18 00:47:51;;;;;;;2.17;0.85;;;;;;;12.99;90.05;100306.13;5088167;28;20023;-70
2022/09/18 00:50:22;;;;;;;2.13;1.17;;;;;;;13.02;90.42;100300.69;4988738;28;20235;-70
2022/09/18 00:52:58;;;;;;;4.55;1.38;;;;;;;12.95;91.41;100296.47;4988382;28;20026;-70
2022/09/18 00:55:30;;;;;;;2.65;0.90;;;;;;;13.00;90.89;100304.28;5046786;28;20040;-70
2022/09/18 00:57:58;;;;;;;2.57;0.80;;;;;;;12.97;91.54;100301.75;5105320;28;20135;-70
2022/09/18 01:00:39;;;;;;;1.40;0.90;;;;;;;12.91;92.31;100292.19;5092421;28;20622;-70
2022/09/18 01:03:04;;;;;;;3.15;1.00;;;;;;;13.00;92.31;100313.19;5099721;28;20138;-70
2022/09/18 01:05:48;;;;;;;1.33;0.80;;;;;;;13.00;91.99;100307.84;5090409;28;20365;-70
2022/09/18 01:08:29;;;;;;;1.08;0.73;;;;;;;13.02;92.18;100306.03;5090356;28;20256;-70
2022/09/18 01:11:10;;;;;;;3.92;0.90;;;;;;;12.99;91.70;100303.44;5083337;28;20386;-70
2022/09/18 01:14:07;;;;;;;4.07;0.90;;;;;;;13.02;92.69;100300.69;5091902;28;20073;-70
2022/09/18 01:16:47;;;;;;;1.55;0.90;;;;;;;13.01;92.91;100298.06;5092039;28;20037;-70
2022/09/18 01:19:44;;;;;;;2.40;0.90;;;;;;;13.01;93.01;100303.41;5110558;28;20043;-70
2022/09/18 01:22:47;;;;;;;3.72;1.08;;;;;;;13.01;93.33;100304.25;5090056;28;20084;-70
2022/09/18 01:25:34;;;;;;;5.40;1.00;;;;;;;13.02;93.40;100298.00;5109060;28;20043;-70
2022/09/18 01:28:23;;;;;;;2.15;1.00;;;;;;;13.02;93.49;100300.69;5109209;28;20034;-70
2022/09/18 01:30:52;;;;;;;3.38;1.00;;;;;;;12.94;93.43;100292.06;5109292;28;20430;-70
2022/09/18 01:33:29;;;;;;;4.20;1.25;;;;;;;12.88;93.58;100284.25;5108874;28;20022;-71
2022/09/18 01:35:59;;;;;;;2.15;1.05;;;;;;;12.92;93.71;100299.25;5109099;28;20049;-71
2022/09/18 01:38:30;;;;;;;1.33;0.90;;;;;;;12.83;93.74;100288.06;5109571;28;20032;-70
2022/09/18 01:41:01;;;;;;;4.05;1.08;;;;;;;12.92;93.61;100303.72;5109901;28;20471;-71
2022/09/18 01:43:29;;;;;;;5.15;1.10;;;;;;;12.87;93.92;100300.34;5108796;28;20019;-70
2022/09/18 01:45:59;;;;;;;6.63;1.15;;;;;;;12.88;93.97;100296.75;5108203;28;20028;-71
2022/09/18 01:48:31;;;;;;;3.53;1.00;;;;;;;12.84;94.02;100292.44;5107980;28;20144;-70
2022/09/18 01:51:06;;;;;;;3.25;1.30;;;;;;;12.77;93.08;100282.91;5107982;28;20062;-70
2022/09/18 01:53:46;;;;;;;1.67;0.93;;;;;;;12.90;93.87;100300.22;5107993;28;20128;-70
2022/09/18 01:56:29;;;;;;;2.05;0.95;;;;;;;12.95;94.45;100300.91;5089436;28;20441;-70
2022/09/18 01:58:58;;;;;;;1.77;0.90;;;;;;;12.92;94.88;100303.72;5109030;28;20034;-71
2022/09/18 02:01:28;;;;;;;2.75;0.93;;;;;;;12.90;95.26;100309.09;5109347;28;20035;-71
2022/09/18 02:04:07;;;;;;;4.63;1.10;;;;;;;12.86;95.96;100304.84;5109667;28;20035;-70
2022/09/18 02:06:37;;;;;;;1.83;1.33;;;;;;;12.88;95.97;100300.28;5109760;28;20023;-70
2022/09/18 02:09:03;;;;;;;1.25;0.90;;;;;;;12.80;95.41;100293.50;5099598;28;20015;-71
2022/09/18 02:11:31;;;;;;;3.72;1.05;;;;;;;12.79;95.73;100297.97;5104674;28;20020;-70
2022/09/18 02:14:07;;;;;;;1.33;1.15;;;;;;;12.86;96.22;100296.81;5109664;28;20379;-70
2022/09/18 02:16:43;;;;;;;1.58;0.88;;;;;;;12.79;96.23;100281.94;5109703;28;20027;-70
2022/09/18 02:19:16;;;;;;;2.60;1.10;;;;;;;12.85;95.69;100297.72;5108180;28;20027;-70
2022/09/18 02:21:44;;;;;;;4.40;1.25;;;;;;;12.85;95.28;100292.38;5090042;28;20131;-70
2022/09/18 02:24:13;;;;;;;2.17;1.13;;;;;;;12.88;95.85;100292.28;5108271;28;20051;-71
2022/09/18 02:26:40;;;;;;;6.05;1.65;;;;;;;12.88;95.71;100292.28;5108607;28;20399;-70
2022/09/18 02:29:09;;;;;;;3.97;1.40;;;;;;;12.84;95.89;100296.00;5107821;28;20027;-70
2022/09/18 02:31:36;;;;;;;4.45;1.02;;;;;;;12.88;95.76;100300.28;5108397;28;20058;-70
2022/09/18 02:34:01;;;;;;;3.28;1.25;;;;;;;12.79;95.48;100281.94;5108667;28;20028;-70
2022/09/18 02:36:54;;;;;;;2.40;1.00;;;;;;;12.86;95.67;100294.16;5109605;28;20039;-71
2022/09/18 02:39:34;;;;;;;3.13;1.38;;;;;;;12.91;95.12;100296.66;5109108;28;20028;-70
2022/09/18 02:42:19;;;;;;;3.75;1.25;;;;;;;12.88;94.69;100297.63;5089158;28;20035;-70
2022/09/18 02:45:09;;;;;;;3.53;1.02;;;;;;;12.84;94.67;100285.31;5088870;28;20047;-70
2022/09/18 02:47:42;;;;;;;1.25;0.95;;;;;;;12.78;95.04;100269.50;5088767;28;20074;-71
2022/09/18 02:50:21;;;;;;;1.38;0.90;;;;;;;12.84;94.67;100285.31;5088972;28;20024;-70
2022/09/18 02:53:30;;;;;;;4.40;0.95;;;;;;;12.85;94.91;100280.88;5089335;28;20043;-70
2022/09/18 02:56:04;;;;;;;4.00;1.15;;;;;;;12.73;94.59;100260.84;5026380;28;20034;-71
2022/09/18 02:58:46;;;;;;;3.05;1.00;;;;;;;12.84;94.58;100279.09;5045515;28;20544;-71
2022/09/18 03:01:13;;;;;;;1.38;1.10;;;;;;;12.72;94.55;100252.88;5070250;28;20085;-70
2022/09/18 03:03:38;;;;;;;3.08;1.27;;;;;;;12.84;94.32;100266.63;5110483;28;20050;-69
2022/09/18 03:06:05;;;;;;;3.17;1.33;;;;;;;12.82;94.59;100255.13;5109861;28;20637;-70
2022/09/18 03:08:31;;;;;;;3.70;1.85;;;;;;;12.84;94.19;100258.63;5091383;28;20030;-70
2022/09/18 03:10:56;;;;;;;6.32;1.40;;;;;;;12.87;94.30;100252.28;5109577;28;20028;-71
2022/09/18 03:13:22;;;;;;;3.83;1.08;;;;;;;12.89;93.91;100256.66;5109780;28;20020;-71
2022/09/18 03:15:47;;;;;;;4.30;1.27;;;;;;;12.92;94.00;100255.66;5109642;28;20387;-71
2022/09/18 03:18:13;;;;;;;6.43;1.48;;;;;;;12.94;94.38;100265.38;5108742;28;20127;-71
2022/09/18 03:20:41;;;;;;;3.63;1.25;;;;;;;12.96;94.40;100266.16;5090288;28;20402;-70
2022/09/18 03:23:07;;;;;;;3.65;1.38;;;;;;;12.93;94.90;100263.59;5109233;28;20086;-70
2022/09/18 03:25:32;;;;;;;4.40;1.13;;;;;;;12.91;94.63;100260.16;5093559;28;20023;-70
2022/09/18 03:27:58;;;;;;;2.13;1.17;;;;;;;12.97;94.74;100281.25;5094269;28;20084;-70
2022/09/18 03:30:23;;;;;;;2.03;1.10;;;;;;;12.93;94.12;100257.41;5112517;28;20031;-70
2022/09/18 03:32:49;;;;;;;5.60;1.27;;;;;;;13.01;94.38;100274.88;5112768;28;20479;-70
2022/09/18 03:35:14;;;;;;;3.00;1.17;;;;;;;13.03;94.18;100264.19;5112072;28;20102;-70
2022/09/18 03:37:40;;;;;;;28.65;1.92;;;;;;;13.02;94.58;100276.66;5112791;28;20073;-70
2022/09/18 03:40:06;;;;;;;1.95;1.02;;;;;;;13.04;94.54;100272.13;5112327;28;20420;-70
2022/09/18 03:42:31;;;;;;;3.70;1.00;;;;;;;12.96;93.33;100254.63;5112426;28;20029;-70
2022/09/18 03:44:57;;;;;;;2.50;1.00;;;;;;;13.02;93.40;100273.97;5093510;28;20130;-70
2022/09/18 03:47:24;;;;;;;4.85;1.38;;;;;;;13.00;93.91;100270.47;5112236;28;20493;-70
2022/09/18 03:49:49;;;;;;;1.77;1.35;;;;;;;13.04;93.48;100276.59;5111862;28;20063;-71
2022/09/18 03:52:15;;;;;;;2.75;1.45;;;;;;;12.96;92.74;100263.47;5112264;28;20054;-70
2022/09/18 03:54:40;;;;;;;6.53;1.77;;;;;;;13.07;93.29;100277.34;5093589;28;20028;-69
2022/09/18 03:57:05;;;;;;;20.60;3.45;;;;;;;13.01;92.77;100261.53;5111815;28;20020;-70
2022/09/18 03:59:31;;;;;;;4.00;1.10;;;;;;;13.12;92.43;100283.38;5110491;28;20024;-70
2022/09/18 04:01:57;;;;;;;3.30;1.17;;;;;;;13.11;92.01;100283.44;5097053;28;20042;-70
2022/09/18 04:04:22;;;;;;;2.85;0.98;;;;;;;13.07;90.99;100274.69;5092868;28;20443;-70
2022/09/18 04:06:48;;;;;;;1.88;0.90;;;;;;;13.08;90.69;100284.41;5093342;28;20028;-70
2022/09/18 04:09:15;;;;;;;3.80;1.40;;;;;;;12.99;90.85;100267.84;5111912;28;20041;-70
2022/09/18 04:11:41;;;;;;;3.75;1.20;;;;;;;13.09;90.94;100283.50;5111571;28;20019;-70
2022/09/18 04:14:06;;;;;;;5.88;1.10;;;;;;;13.01;90.67;100277.56;5111443;28;20030;-70
2022/09/18 04:16:31;;;;;;;1.33;0.88;;;;;;;13.08;91.26;100286.22;5108337;28;20031;-69
2022/09/18 04:18:57;;;;;;;7.40;2.35;;;;;;;13.07;91.49;100288.03;5111620;28;20075;-70
2022/09/18 04:21:22;;;;;;;7.10;1.52;;;;;;;13.07;91.24;100285.34;5111560;28;20034;-70
2022/09/18 04:23:51;;;;;;;3.80;1.08;;;;;;;13.04;91.35;100282.81;5111102;28;20048;-70
2022/09/18 04:26:16;;;;;;;4.85;1.38;;;;;;;12.95;91.25;100288.44;5093009;28;20058;-70
2022/09/18 04:28:41;;;;;;;6.25;1.35;;;;;;;12.99;90.70;100286.53;5111717;28;20051;-70
2022/09/18 04:31:07;;;;;;;1.70;1.08;;;;;;;13.00;90.51;100286.47;5092881;28;20066;-69
2022/09/18 04:33:32;;;;;;;4.50;1.08;;;;;;;12.97;90.84;100285.72;5111219;28;20071;-70
2022/09/18 04:35:58;;;;;;;6.22;1.48;;;;;;;13.03;90.57;100285.53;5110899;28;20027;-70
2022/09/18 04:38:26;;;;;;;5.45;1.83;;;;;;;12.96;90.70;100270.63;5111107;28;20125;-70
2022/09/18 04:40:59;;;;;;;4.40;1.45;;;;;;;13.05;91.64;100283.66;5110588;28;20031;-70
2022/09/18 04:43:25;;;;;;;2.70;1.23;;;;;;;13.02;90.31;100283.78;5110904;28;20027;-70
2022/09/18 04:45:52;;;;;;;5.50;1.23;;;;;;;12.99;90.59;100291.88;5110797;28;20271;-70
2022/09/18 04:48:19;;;;;;;3.55;1.10;;;;;;;13.00;90.91;100297.16;5110869;28;20031;-70
2022/09/18 04:50:46;;;;;;;3.55;1.25;;;;;;;13.00;90.62;100285.59;5107370;28;20067;-69
2022/09/18 04:53:12;;;;;;;2.72;0.90;;;;;;;12.98;90.07;100288.31;5110809;28;20134;-69
2022/09/18 04:55:38;;;;;;;7.15;1.75;;;;;;;12.92;89.65;100272.56;5092399;28;20034;-70
2022/09/18 04:58:04;;;;;;;23.77;3.05;;;;;;;12.81;90.25;100258.75;5092168;28;20546;-71
2022/09/18 05:00:30;;;;;;;3.75;1.15;;;;;;;13.00;89.50;100281.13;5109562;28;20102;-70
2022/09/18 05:02:55;;;;;;;5.18;1.27;;;;;;;12.99;90.13;100267.84;5109435;28;20084;-71
2022/09/18 05:05:21;;;;;;;2.30;1.00;;;;;;;13.07;89.42;100285.34;5091281;28;20484;-70
2022/09/18 05:07:46;;;;;;;3.13;0.93;;;;;;;13.01;89.23;100274.88;5109250;28;20138;-70
2022/09/18 05:10:12;;;;;;;1.92;1.10;;;;;;;13.08;89.67;100297.78;5104007;28;20454;-70
2022/09/18 05:12:42;;;;;;;1.35;1.00;;;;;;;13.02;89.12;100295.34;5088729;28;20145;-70
2022/09/18 05:15:08;;;;;;;5.40;0.95;;;;;;;13.06;89.26;100296.09;5089815;28;20023;-70
2022/09/18 05:17:34;;;;;;;2.53;0.90;;;;;;;13.06;89.04;100307.63;5089973;28;20038;-70
2022/09/18 05:19:59;;;;;;;5.68;1.00;;;;;;;13.01;88.57;100304.25;5071677;28;20045;-70
2022/09/18 05:22:24;;;;;;;4.85;1.30;;;;;;;13.07;89.04;100311.19;5089574;28;20035;-70
2022/09/18 05:24:50;;;;;;;2.55;1.20;;;;;;;13.10;88.67;100313.72;5103900;28;20084;-70
2022/09/18 05:27:15;;;;;;;5.60;1.50;;;;;;;13.16;89.69;100305.50;5110083;28;20415;-70
2022/09/18 05:29:41;;;;;;;4.38;1.48;;;;;;;13.20;89.68;100297.31;5110128;28;20023;-70
2022/09/18 05:32:07;;;;;;;2.13;1.15;;;;;;;13.20;89.99;100305.31;5110271;28;20101;-70
2022/09/18 05:34:32;;;;;;;8.93;1.25;;;;;;;13.12;89.77;100291.41;5110594;28;20027;-70
2022/09/18 05:36:58;;;;;;;5.03;1.67;;;;;;;13.21;89.58;100298.19;5110016;28;20025;-70
2022/09/18 05:39:23;;;;;;;2.60;1.58;;;;;;;13.20;91.22;100309.78;5110212;28;20035;-70
2022/09/18 05:41:52;;;;;;;7.70;2.30;;;;;;;13.24;91.02;100312.25;5090784;28;20081;-70
2022/09/18 05:44:18;;;;;;;13.27;2.85;;;;;;;13.28;90.83;100317.53;5089578;28;20475;-70
2022/09/18 05:46:47;;;;;;;6.22;2.25;;;;;;;13.25;91.34;100313.16;5089061;28;20111;-70
2022/09/18 05:49:12;;;;;;;6.25;2.50;;;;;;;13.27;92.08;100326.44;5089717;28;20032;-70
2022/09/18 05:51:38;;;;;;;6.05;2.17;;;;;;;13.17;91.31;100313.47;5071085;28;20031;-70
2022/09/18 05:54:04;;;;;;;11.27;2.55;;;;;;;13.26;91.67;100320.25;5089650;28;20059;-70
2022/09/18 05:56:30;;;;;;;8.93;2.30;;;;;;;13.23;91.99;100318.56;5103799;28;20023;-70
2022/09/18 05:58:55;;;;;;;3.33;1.50;;;;;;;13.37;92.50;100322.50;5091158;28;20047;-70
2022/09/18 06:01:21;;;;;;;2.97;1.40;;;;;;;13.20;92.80;100293.75;5109354;28;20371;-70
2022/09/18 06:03:49;;;;;;;2.22;1.40;;;;;;;13.41;92.03;100318.78;5109754;28;20110;-70
2022/09/18 06:06:14;;;;;;;3.08;1.55;;;;;;;13.44;92.06;100326.66;5110185;28;20032;-70
2022/09/18 06:08:39;;;;;;;5.05;1.30;;;;;;;13.43;91.15;100330.25;5109376;28;20028;-70
2022/09/18 06:11:05;;;;;;;2.47;1.20;;;;;;;13.44;90.50;100326.66;5096744;28;20446;-70
2022/09/18 06:13:30;;;;;;;3.42;1.02;;;;;;;13.41;89.88;100330.31;5089595;28;20032;-70
2022/09/18 06:15:57;;;;;;;1.88;1.20;;;;;;;13.45;89.69;100325.72;5089621;28;20024;-70
2022/09/18 06:18:23;;;;;;;2.90;1.50;;;;;;;13.48;90.13;100321.13;5071981;28;20077;-70
2022/09/18 06:20:56;;;;;;;3.92;1.90;;;;;;;13.48;90.26;100341.63;5109133;28;20024;-70
2022/09/18 06:23:23;;;;;;;2.75;1.30;;;;;;;13.53;89.53;100334.31;5096272;28;20177;-70
2022/09/18 06:25:58;;;;;;;4.20;1.58;;;;;;;13.51;89.58;100330.84;5110082;28;20403;-71
2022/09/18 06:28:24;;;;;;;4.40;1.30;;;;;;;13.55;90.48;100332.44;5109373;28;20411;-71
2022/09/18 06:30:49;;;;;;;4.07;2.03;;;;;;;13.57;90.10;100336.81;5109714;28;20024;-71
2022/09/18 06:33:15;;;;;;;2.42;1.42;;;;;;;13.62;90.19;100340.19;5109567;28;20035;-71
2022/09/18 06:35:41;;;;;;;2.83;1.58;;;;;;;13.67;90.48;100342.66;5109437;28;20506;-71
2022/09/18 06:38:08;;;;;;;3.33;1.40;;;;;;;13.67;90.70;100326.63;5109227;28;20488;-71
2022/09/18 06:40:34;;;;;;;9.50;2.00;;;;;;;13.71;89.40;100336.25;5109049;28;20031;-71
2022/09/18 06:43:01;;;;;;;4.80;2.00;;;;;;;13.75;89.18;100351.25;5110688;28;20110;-68
2022/09/18 06:45:27;;;;;;;6.85;2.03;;;;;;;13.75;88.51;100348.56;5105972;28;20028;-68
2022/09/18 06:47:54;;;;;;;3.38;1.55;;;;;;;13.74;88.51;100353.03;5109391;28;20081;-68
2022/09/18 06:50:21;;;;;;;3.22;1.75;;;;;;;13.73;88.99;100353.97;5108414;28;20069;-68
2022/09/18 06:52:47;;;;;;;3.55;1.67;;;;;;;13.78;90.19;100351.13;5089403;28;20455;-69
2022/09/18 06:55:12;;;;;;;2.47;1.30;;;;;;;13.76;88.51;100351.19;5089173;28;20110;-68
2022/09/18 06:57:38;;;;;;;3.05;1.50;;;;;;;13.76;88.70;100352.97;5107626;28;20035;-68
2022/09/18 07:00:04;;;;;;;1.65;1.13;;;;;;;13.85;89.72;100348.16;5111985;28;20081;-68
2022/09/18 07:02:29;;;;;;;2.53;1.25;;;;;;;13.93;89.42;100351.38;5111531;28;20459;-68
2022/09/18 07:04:54;;;;;;;3.33;1.52;;;;;;;13.99;87.76;100350.25;5112468;28;20098;-68
2022/09/18 07:07:20;;;;;;;3.88;1.20;;;;;;;13.95;87.56;100340.63;5094286;28;20035;-68
2022/09/18 07:09:45;;;;;;;3.70;1.95;;;;;;;14.00;88.01;100352.00;5110415;28;20016;-68
2022/09/18 07:12:11;;;;;;;1.65;1.23;;;;;;;14.02;87.87;100344.78;5092911;28;20051;-70
2022/09/18 07:14:36;;;;;;;5.15;1.60;;;;;;;14.15;88.62;100346.88;5085464;28;20020;-70
2022/09/18 07:17:02;;;;;;;6.90;1.95;;;;;;;14.24;87.83;100350.97;5111417;28;20062;-70
2022/09/18 07:19:27;;;;;;;4.38;1.52;;;;;;;14.27;86.45;100353.53;5111794;28;20023;-69
2022/09/18 07:21:52;;;;;;;2.22;1.33;;;;;;;14.33;86.84;100347.94;5111966;28;20080;-69
2022/09/18 07:24:18;;;;;;;2.45;1.25;;;;;;;14.36;85.58;100346.00;5112183;28;20491;-70
2022/09/18 07:26:43;;;;;;;2.78;1.30;;;;;;;14.39;85.41;100353.03;5112596;28;20057;-69
2022/09/18 07:29:09;;;;;;;3.45;1.45;;;;;;;14.44;85.09;100346.56;5112893;28;20028;-69
2022/09/18 07:31:35;;;;;;;3.00;1.50;;;;;;;14.46;85.30;100341.13;5112758;28;20034;-69
2022/09/18 07:34:00;;;;;;;3.33;1.27;;;;;;;14.46;84.21;100335.78;5112530;28;20544;-69
2022/09/18 07:36:26;;;;;;;2.78;1.30;;;;;;;14.45;83.75;100339.38;5093779;28;20114;-69
2022/09/18 07:38:51;;;;;;;5.45;1.42;;;;;;;14.48;83.63;100345.47;5112060;28;20429;-69
2022/09/18 07:41:17;;;;;;;3.20;1.77;;;;;;;14.57;83.34;100341.53;5097986;28;20463;-69
2022/09/18 07:43:43;;;;;;;4.38;1.27;;;;;;;14.67;83.22;100337.53;5073408;28;20089;-69
2022/09/18 07:46:09;;;;;;;3.42;1.48;;;;;;;14.74;82.22;100324.72;5092033;28;20031;-69
2022/09/18 07:48:35;;;;;;;4.30;1.30;;;;;;;14.87;80.88;100337.50;5092123;28;20022;-69
2022/09/18 07:51:01;;;;;;;5.07;1.30;;;;;;;14.92;81.71;100346.22;5091660;28;20024;-69
2022/09/18 07:53:28;;;;;;;1.77;1.30;;;;;;;15.00;81.18;100343.16;5091334;28;20032;-69
2022/09/18 07:55:56;;;;;;;2.40;0.90;;;;;;;14.98;80.39;100343.25;5091800;28;20028;-70
2022/09/18 07:58:22;;;;;;;1.85;1.10;;;;;;;15.03;80.79;100338.53;5107137;28;20016;-70
2022/09/18 08:00:48;;;;;;;4.53;1.40;;;;;;;15.18;81.36;100351.25;5111965;28;20023;-70
2022/09/18 08:03:14;;;;;;;1.52;1.00;;;;;;;15.19;80.08;100347.63;5111431;28;20487;-69
2022/09/18 08:05:40;;;;;;;1.83;1.08;;;;;;;15.31;78.86;100348.84;5112045;28;20028;-70
2022/09/18 08:08:07;;;;;;;3.15;1.10;;;;;;;15.22;78.85;100338.59;5111786;28;20026;-69
2022/09/18 08:10:35;;;;;;;7.00;2.15;;;;;;;15.26;79.70;100333.00;5111280;28;20031;-69
2022/09/18 08:13:01;;;;;;;4.43;1.92;;;;;;;15.37;79.38;100338.72;5111792;28;20023;-69
2022/09/18 08:15:28;;;;;;;3.47;1.52;;;;;;;15.58;79.14;100352.97;5108431;28;20016;-69
2022/09/18 08:17:53;;;;;;;2.03;1.13;;;;;;;15.63;77.94;100357.16;5093102;28;20036;-69
2022/09/18 08:20:19;;;;;;;2.35;1.10;;;;;;;15.75;77.61;100350.34;5111773;28;20032;-69
2022/09/18 08:22:45;;;;;;;2.35;1.02;;;;;;;15.82;76.14;100363.38;5111256;28;20035;-70
2022/09/18 08:25:11;;;;;;;2.17;0.88;;;;;;;15.78;75.84;100361.78;5111802;28;20023;-70
2022/09/18 08:27:37;;;;;;;2.85;1.20;;;;;;;15.91;76.38;100354.03;5111370;28;20051;-69
2022/09/18 08:30:04;;;;;;;1.48;0.80;;;;;;;16.00;76.80;100366.09;5111417;28;20032;-69
2022/09/18 08:32:30;;;;;;;4.03;1.10;;;;;;;16.04;76.28;100360.53;5092832;28;20105;-69
2022/09/18 08:34:56;;;;;;;3.22;1.00;;;;;;;16.11;76.68;100363.78;5111443;28;20035;-69
2022/09/18 08:37:22;;;;;;;1.45;0.80;;;;;;;16.14;77.54;100361.81;5111075;28;20379;-70
2022/09/18 08:39:47;;;;;;;2.95;1.00;;;;;;;16.19;76.22;100364.25;5111806;28;20031;-69
2022/09/18 08:42:53;;;;;;;3.80;1.10;;;;;;;16.21;74.60;100365.06;5110167;28;20028;-69
2022/09/18 08:45:18;;;;;;;2.30;0.88;;;;;;;16.28;75.41;100358.41;5045867;28;20104;-69
2022/09/18 08:47:50;;;;;;;5.47;0.90;;;;;;;16.42;76.47;100358.59;5091146;28;20023;-69
2022/09/18 08:50:53;;;;;;;2.53;0.73;;;;;;;16.49;74.99;100349.34;5090903;28;20020;-70
2022/09/18 08:53:54;;;;;;;4.28;0.70;;;;;;;16.42;73.25;100334.44;5077837;28;20097;-69
2022/09/18 08:56:23;;;;;;;4.88;1.00;;;;;;;16.33;70.85;100334.91;5073074;28;20042;-69
2022/09/18 08:59:00;;;;;;;3.72;0.85;;;;;;;16.35;69.47;100351.81;5090313;28;20042;-69
2022/09/18 09:01:45;;;;;;;3.67;0.70;;;;;;;16.33;69.58;100346.50;5071846;28;20459;-69
2022/09/18 09:04:22;;;;;;;5.13;1.33;;;;;;;16.51;70.73;100347.41;5090204;28;20031;-69
2022/09/18 09:06:53;;;;;;;1.05;0.60;;;;;;;16.63;71.00;100352.16;5090677;28;20031;-69
2022/09/18 09:10:02;;;;;;;3.80;0.80;;;;;;;16.66;69.76;100352.00;5090434;28;20024;-69
2022/09/18 09:12:55;;;;;;;2.97;0.80;;;;;;;16.65;69.47;100352.97;5072158;28;20023;-69
2022/09/18 09:15:52;;;;;;;1.27;0.70;;;;;;;16.89;66.72;100344.47;5090444;28;20403;-70
2022/09/18 09:18:27;;;;;;;2.53;0.70;;;;;;;17.15;66.00;100340.38;5057573;28;20164;-69
2022/09/18 09:21:01;;;;;;;2.63;0.80;;;;;;;17.39;65.95;100333.69;5109227;28;20415;-69
2022/09/18 09:23:39;;;;;;;2.67;0.90;;;;;;;17.59;66.72;100330.78;5108864;28;20043;-69
2022/09/18 09:26:12;;;;;;;4.93;0.85;;;;;;;17.75;65.82;100331.66;5091052;28;20395;-69
2022/09/18 09:28:58;;;;;;;4.25;0.98;;;;;;;17.82;63.61;100324.09;5109082;28;20439;-69
2022/09/18 09:31:34;;;;;;;2.25;0.90;;;;;;;17.79;64.54;100337.72;5090502;28;20031;-69
2022/09/18 09:34:05;;;;;;;2.38;0.85;;;;;;;17.75;63.97;100345.09;5109275;28;20490;-69
2022/09/18 09:36:35;;;;;;;1.35;0.68;;;;;;;17.77;63.96;100329.75;5110231;28;20117;-70
2022/09/18 09:39:22;;;;;;;5.10;0.80;;;;;;;17.93;63.86;100335.97;5110288;28;20031;-70
2022/09/18 09:42:10;;;;;;;5.30;0.63;;;;;;;17.98;64.21;100328.50;5110367;28;20031;-70
2022/09/18 09:44:42;;;;;;;4.32;1.08;;;;;;;17.96;61.99;100330.41;5110439;28;20098;-70
2022/09/18 09:47:30;;;;;;;2.92;0.80;;;;;;;17.95;63.81;100328.69;5110352;28;20487;-69
2022/09/18 09:50:07;;;;;;;3.42;0.60;;;;;;;17.91;64.12;100323.56;5107058;28;20019;-69
2022/09/18 09:52:37;;;;;;;3.13;0.57;;;;;;;17.95;64.87;100317.94;5089951;28;20063;-69
2022/09/18 09:55:06;;;;;;;3.05;0.60;;;;;;;17.95;61.64;100322.44;5089854;28;20509;-70
2022/09/18 09:57:55;;;;;;;3.90;0.70;;;;;;;18.05;62.20;100326.31;5102715;28;20787;-70
2022/09/18 10:00:22;;;;;;;3.30;0.63;;;;;;;18.06;61.24;100326.25;5109952;28;20383;-70
2022/09/18 10:03:29;;;;;;;7.90;0.98;;;;;;;17.85;59.43;100315.84;5110270;28;20413;-70
2022/09/18 10:06:12;;;;;;;1.67;0.80;;;;;;;17.71;60.04;100313.09;5095135;28;20406;-71
2022/09/18 10:08:46;;;;;;;1.00;0.57;;;;;;;17.71;61.24;100313.09;5109779;28;20034;-70
2022/09/18 10:11:12;;;;;;;2.75;0.80;;;;;;;17.73;61.71;100312.03;5095951;28;20032;-70
2022/09/18 10:14:01;;;;;;;2.95;0.70;;;;;;;17.76;59.56;100316.38;5071414;28;20135;-70
2022/09/18 10:16:43;;;;;;;4.50;0.80;;;;;;;17.63;59.11;100302.75;5101676;28;20031;-70
2022/09/18 10:19:18;;;;;;;1.38;0.68;;;;;;;17.87;54.46;100319.31;5109181;28;20045;-70
2022/09/18 10:21:44;;;;;;;0.95;0.60;;;;;;;18.27;55.47;100314.19;5109623;28;20471;-71
2022/09/18 10:24:39;;;;;;;3.53;0.57;;;;;;;18.82;54.34;100316.28;5109388;28;20475;-70
2022/09/18 10:27:10;;;;;;;1.05;0.50;;;;;;;19.07;52.61;100313.81;5109472;28;20474;-70
2022/09/18 10:29:39;;;;;;;2.63;0.60;;;;;;;19.12;52.13;100314.41;5109410;28;20024;-71
2022/09/18 10:32:05;;;;;;;4.18;0.88;;;;;;;19.41;50.69;100310.75;5109486;28;20103;-70
2022/09/18 10:34:38;;;;;;;1.83;0.57;;;;;;;19.70;50.25;100306.19;5111757;28;20035;-70
2022/09/18 10:37:05;;;;;;;3.03;0.70;;;;;;;20.43;49.15;100309.28;5112078;28;20026;-70
2022/09/18 10:39:33;;;;;;;0.77;0.45;;;;;;;21.28;47.05;100308.72;5112908;28;20455;-69
2022/09/18 10:42:01;;;;;;;0.50;0.40;;;;;;;21.57;45.37;100296.66;5113196;28;20127;-69
2022/09/18 10:44:39;;;;;;;2.53;0.68;;;;;;;21.90;45.47;100286.06;5112998;28;20027;-69
2022/09/18 10:47:18;;;;;;;3.03;0.60;;;;;;;21.95;43.76;100300.13;5097514;28;20030;-70
2022/09/18 10:49:52;;;;;;;2.30;0.40;;;;;;;22.05;45.35;100291.22;5092471;28;20099;-70
2022/09/18 10:52:30;;;;;;;0.88;0.57;;;;;;;22.62;44.67;100291.34;5092501;28;20048;-70
2022/09/18 10:55:05;;;;;;;2.90;0.60;;;;;;;22.37;43.74;100287.91;5091638;28;20028;-70
2022/09/18 10:57:42;;;;;;;1.23;0.52;;;;;;;21.85;42.95;100282.84;5103220;28;20169;-71
2022/09/18 11:00:10;;;;;;;2.17;0.40;;;;;;;21.04;44.43;100291.56;5111686;28;20510;-70
2022/09/18 11:02:45;;;;;;;2.78;0.52;;;;;;;20.51;47.37;100284.47;5110605;28;20020;-70
2022/09/18 11:05:18;;;;;;;1.35;0.43;;;;;;;20.01;46.73;100277.06;5110731;28;20019;-70
2022/09/18 11:07:56;;;;;;;;;;;;;;;19.63;48.07;100276.03;5111808;28;20031;-70
2022/09/18 11:10:25;;;;;;;2.88;0.70;;;;;;;19.47;47.34;100275.28;5104381;28;19911;-70
2022/09/18 11:13:00;;;;;;;1.95;0.50;;;;;;;19.41;49.45;100273.84;5090771;28;20081;-70
2022/09/18 11:15:34;;;;;;;1.25;0.77;;;;;;;19.33;48.60;100280.69;5090589;28;20028;-70
2022/09/18 11:18:04;;;;;;;2.08;0.68;;;;;;;19.26;50.19;100263.13;5094716;28;20110;-71
2022/09/18 11:20:45;;;;;;;1.67;0.50;;;;;;;19.24;50.22;100270.47;5090579;28;20025;-70
2022/09/18 11:23:31;;;;;;;1.65;0.75;;;;;;;19.27;50.25;100264.88;5090497;28;20557;-70
2022/09/18 11:26:27;;;;;;;1.75;0.40;;;;;;;19.08;50.42;100272.41;5090941;28;20511;-71
2022/09/18 11:29:29;;;;;;;1.50;0.60;;;;;;;18.82;52.07;100267.78;5090737;28;20089;-70
2022/09/18 11:32:21;;;;;;;1.40;0.60;;;;;;;18.77;50.93;100264.50;5030567;28;20047;-70
2022/09/18 11:35:14;;;;;;;0.55;0.43;;;;;;;19.05;53.23;100261.81;5092002;28;20551;-71
2022/09/18 11:37:47;;;;;;;1.17;0.55;;;;;;;19.07;51.61;100241.00;5092751;28;20088;-70
2022/09/18 11:40:27;;;;;;;;;;;;;;;19.13;51.21;100256.78;5097708;28;20385;-70
2022/09/18 11:42:54;;;;;;;0.85;0.40;;;;;;;19.07;52.35;100249.97;5112281;28;19915;-71
2022/09/18 11:45:22;;;;;;;1.67;0.40;;;;;;;19.00;51.67;100250.44;5111251;28;20027;-71